sensor_id;sensor_type;location;lat;lon;timestamp;pressure;altitude;pressure_sealevel;temperature;humidity
33795;BME280;51430;52.242;21.118;2023-07-20T13:44:35;99695.67;;;27.21;47.77
33795;BME280;51430;52.242;21.118;2023-07-20T13:53:47;99704.38;;;27.29;46.91
33795;BME280;51430;52.242;21.118;2023-07-20T13:56:19;99706.29;;;27.20;46.49
33795;BME280;51430;52.242;21.118;2023-07-20T13:58:48;99711.73;;;27.11;46.79
33795;BME280;51430;52.242;21.118;2023-07-20T14:01:17;99715.17;;;27.11;47.57
33795;BME280;51430;52.242;21.118;2023-07-20T14:03:56;99728.01;;;26.96;46.83
33795;BME280;51430;52.242;21.118;2023-07-20T14:06:30;99725.66;;;26.57;48.05
33795;BME280;51430;52.242;21.118;2023-07-20T14:09:02;99725.70;;;26.31;48.97
33795;BME280;51430;52.242;21.118;2023-07-20T14:11:33;99727.00;;;25.70;49.36
33795;BME280;51430;52.242;21.118;2023-07-20T14:14:23;99724.81;;;25.13;51.01
33795;BME280;51430;52.242;21.118;2023-07-20T14:17:11;99728.61;;;25.06;51.91
33795;BME280;51430;52.242;21.118;2023-07-20T14:19:43;99732.67;;;25.03;52.27
33795;BME280;51430;52.242;21.118;2023-07-20T14:22:11;99730.06;;;25.08;52.07
33795;BME280;51430;52.242;21.118;2023-07-20T14:24:39;99731.62;;;24.95;52.21
33795;BME280;51430;52.242;21.118;2023-07-20T14:27:11;99736.27;;;25.13;52.08
33795;BME280;51430;52.242;21.118;2023-07-20T14:29:40;99737.69;;;25.18;52.66
33795;BME280;51430;52.242;21.118;2023-07-20T14:32:08;99742.25;;;25.14;52.16
33795;BME280;51430;52.242;21.118;2023-07-20T14:34:35;99740.94;;;24.97;52.54
33795;BME280;51430;52.242;21.118;2023-07-20T14:37:06;99742.30;;;24.58;52.52
33795;BME280;51430;52.242;21.118;2023-07-20T14:39:34;99739.34;;;24.34;53.17
33795;BME280;51430;52.242;21.118;2023-07-20T14:42:02;99736.36;;;24.07;54.01
33795;BME280;51430;52.242;21.118;2023-07-20T14:44:33;99735.19;;;23.90;54.77
33795;BME280;51430;52.242;21.118;2023-07-20T14:47:01;99727.20;;;23.91;55.38
33795;BME280;51430;52.242;21.118;2023-07-20T14:49:40;99725.79;;;24.03;55.50
33795;BME280;51430;52.242;21.118;2023-07-20T14:52:08;99722.86;;;24.14;55.78
33795;BME280;51430;52.242;21.118;2023-07-20T14:54:39;99719.39;;;24.11;53.41
33795;BME280;51430;52.242;21.118;2023-07-20T14:57:07;99722.13;;;23.90;52.78
33795;BME280;51430;52.242;21.118;2023-07-20T14:59:42;99724.04;;;23.79;53.21
33795;BME280;51430;52.242;21.118;2023-07-20T15:02:12;99722.77;;;23.89;53.38
33795;BME280;51430;52.242;21.118;2023-07-20T15:04:46;99724.16;;;24.05;53.19
33795;BME280;51430;52.242;21.118;2023-07-20T15:07:20;99729.58;;;24.23;53.05
33795;BME280;51430;52.242;21.118;2023-07-20T15:09:50;99725.21;;;25.11;50.73
33795;BME280;51430;52.242;21.118;2023-07-20T15:12:18;99721.16;;;27.04;46.39
33795;BME280;51430;52.242;21.118;2023-07-20T15:15:02;99714.20;;;28.49;42.47
33795;BME280;51430;52.242;21.118;2023-07-20T15:17:34;99704.22;;;28.96;41.64
33795;BME280;51430;52.242;21.118;2023-07-20T15:20:03;99708.14;;;29.66;40.87
33795;BME280;51430;52.242;21.118;2023-07-20T15:22:34;99711.65;;;30.33;39.58
33795;BME280;51430;52.242;21.118;2023-07-20T15:25:08;99718.23;;;31.31;37.71
33795;BME280;51430;52.242;21.118;2023-07-20T15:27:41;99720.39;;;31.98;35.66
33795;BME280;51430;52.242;21.118;2023-07-20T15:30:18;99721.22;;;32.00;34.53
33795;BME280;51430;52.242;21.118;2023-07-20T15:32:48;99721.98;;;31.73;34.53
33795;BME280;51430;52.242;21.118;2023-07-20T15:35:19;99726.75;;;32.23;34.25
33795;BME280;51430;52.242;21.118;2023-07-20T15:37:47;99734.45;;;32.39;32.59
33795;BME280;51430;52.242;21.118;2023-07-20T15:40:15;99737.90;;;32.44;33.04
33795;BME280;51430;52.242;21.118;2023-07-20T15:42:44;99740.43;;;32.63;31.79
33795;BME280;51430;52.242;21.118;2023-07-20T15:45:21;99748.40;;;32.24;29.95
33795;BME280;51430;52.242;21.118;2023-07-20T15:47:49;99747.27;;;31.82;30.87
33795;BME280;51430;52.242;21.118;2023-07-20T15:50:17;99741.95;;;31.06;33.02
33795;BME280;51430;52.242;21.118;2023-07-20T15:52:49;99739.73;;;30.10;34.14
33795;BME280;51430;52.242;21.118;2023-07-20T15:55:18;99741.84;;;29.18;35.62
33795;BME280;51430;52.242;21.118;2023-07-20T15:57:46;99746.13;;;28.49;36.87
33795;BME280;51430;52.242;21.118;2023-07-20T16:00:15;99755.84;;;27.99;37.94
33795;BME280;51430;52.242;21.118;2023-07-20T16:02:45;99758.33;;;27.64;39.16
33795;BME280;51430;52.242;21.118;2023-07-20T16:05:14;99750.35;;;27.43;40.01
33795;BME280;51430;52.242;21.118;2023-07-20T16:07:41;99745.91;;;27.31;38.77
33795;BME280;51430;52.242;21.118;2023-07-20T16:10:13;99744.38;;;27.08;39.00
33795;BME280;51430;52.242;21.118;2023-07-20T16:12:41;99753.56;;;26.88;40.80
33795;BME280;51430;52.242;21.118;2023-07-20T16:15:11;99756.60;;;26.64;41.73
33795;BME280;51430;52.242;21.118;2023-07-20T16:17:39;99754.70;;;26.34;42.74
33795;BME280;51430;52.242;21.118;2023-07-20T16:20:07;99755.13;;;26.04;42.97
33795;BME280;51430;52.242;21.118;2023-07-20T16:22:35;99763.94;;;25.76;43.52
33795;BME280;51430;52.242;21.118;2023-07-20T16:25:03;99792.79;;;25.48;44.07
33795;BME280;51430;52.242;21.118;2023-07-20T16:27:32;99813.63;;;25.01;43.34
33795;BME280;51430;52.242;21.118;2023-07-20T16:29:59;99835.25;;;24.28;45.52
33795;BME280;51430;52.242;21.118;2023-07-20T16:32:29;99838.70;;;22.93;63.86
33795;BME280;51430;52.242;21.118;2023-07-20T16:34:59;99835.88;;;21.06;74.74
33795;BME280;51430;52.242;21.118;2023-07-20T16:37:34;99843.23;;;20.04;81.20
33795;BME280;51430;52.242;21.118;2023-07-20T16:40:07;99839.54;;;19.57;86.71
33795;BME280;51430;52.242;21.118;2023-07-20T16:42:56;99838.42;;;18.95;89.85
33795;BME280;51430;52.242;21.118;2023-07-20T16:45:27;99831.30;;;18.70;92.11
33795;BME280;51430;52.242;21.118;2023-07-20T16:47:55;99823.41;;;18.55;94.82
33795;BME280;51430;52.242;21.118;2023-07-20T16:50:24;99835.14;;;18.37;95.69
33795;BME280;51430;52.242;21.118;2023-07-20T16:52:52;99826.80;;;18.06;95.84
33795;BME280;51430;52.242;21.118;2023-07-20T16:55:21;99811.04;;;17.98;97.93
33795;BME280;51430;52.242;21.118;2023-07-20T16:57:49;99798.75;;;18.05;99.64
33795;BME280;51430;52.242;21.118;2023-07-20T17:00:17;99789.20;;;18.17;100.00
33795;BME280;51430;52.242;21.118;2023-07-20T17:02:45;99787.98;;;18.18;100.00
33795;BME280;51430;52.242;21.118;2023-07-20T17:05:13;99782.61;;;18.28;100.00
33795;BME280;51430;52.242;21.118;2023-07-20T17:07:41;99782.28;;;18.32;100.00
33795;BME280;51430;52.242;21.118;2023-07-20T17:10:09;99779.38;;;18.35;100.00
33795;BME280;51430;52.242;21.118;2023-07-20T17:12:39;99778.27;;;18.50;100.00
33795;BME280;51430;52.242;21.118;2023-07-20T17:15:08;99767.27;;;18.62;100.00
33795;BME280;51430;52.242;21.118;2023-07-20T17:17:36;99757.81;;;18.55;100.00
33795;BME280;51430;52.242;21.118;2023-07-20T17:20:05;99759.18;;;18.57;100.00
33795;BME280;51430;52.242;21.118;2023-07-20T17:22:38;99756.38;;;18.55;100.00
33795;BME280;51430;52.242;21.118;2023-07-20T17:25:06;99760.73;;;18.66;100.00
33795;BME280;51430;52.242;21.118;2023-07-20T17:27:38;99770.00;;;18.62;100.00
33795;BME280;51430;52.242;21.118;2023-07-20T17:30:09;99778.93;;;18.51;100.00
33795;BME280;51430;52.242;21.118;2023-07-20T17:32:37;99791.02;;;18.48;100.00
33795;BME280;51430;52.242;21.118;2023-07-20T17:35:05;99786.19;;;18.47;100.00
33795;BME280;51430;52.242;21.118;2023-07-20T17:37:33;99782.76;;;18.46;100.00
33795;BME280;51430;52.242;21.118;2023-07-20T17:40:07;99776.71;;;18.48;100.00
33795;BME280;51430;52.242;21.118;2023-07-20T17:42:40;99773.29;;;18.50;100.00
33795;BME280;51430;52.242;21.118;2023-07-20T17:45:11;99779.09;;;18.38;100.00
33795;BME280;51430;52.242;21.118;2023-07-20T17:47:39;99773.03;;;18.42;100.00
33795;BME280;51430;52.242;21.118;2023-07-20T17:50:08;99772.70;;;18.43;100.00
33795;BME280;51430;52.242;21.118;2023-07-20T17:52:38;99779.35;;;18.36;100.00
33795;BME280;51430;52.242;21.118;2023-07-20T17:55:07;99783.30;;;18.25;100.00
33795;BME280;51430;52.242;21.118;2023-07-20T17:57:36;99777.86;;;18.11;100.00
33795;BME280;51430;52.242;21.118;2023-07-20T18:00:10;99783.53;;;18.03;100.00
33795;BME280;51430;52.242;21.118;2023-07-20T18:02:42;99784.14;;;17.98;100.00
33795;BME280;51430;52.242;21.118;2023-07-20T18:05:11;99788.32;;;17.88;100.00
33795;BME280;51430;52.242;21.118;2023-07-20T18:07:40;99794.88;;;17.71;100.00
33795;BME280;51430;52.242;21.118;2023-07-20T18:10:09;99797.30;;;17.57;100.00
33795;BME280;51430;52.242;21.118;2023-07-20T18:12:36;99798.48;;;17.45;100.00
33795;BME280;51430;52.242;21.118;2023-07-20T18:15:05;99798.77;;;17.45;100.00
33795;BME280;51430;52.242;21.118;2023-07-20T18:17:35;99803.90;;;17.54;100.00
33795;BME280;51430;52.242;21.118;2023-07-20T18:20:09;99805.16;;;17.51;100.00
33795;BME280;51430;52.242;21.118;2023-07-20T18:22:37;99808.55;;;17.52;100.00
33795;BME280;51430;52.242;21.118;2023-07-20T18:25:09;99812.73;;;17.51;100.00
33795;BME280;51430;52.242;21.118;2023-07-20T18:27:38;99813.73;;;17.49;100.00
33795;BME280;51430;52.242;21.118;2023-07-20T18:30:08;99821.56;;;17.49;100.00
33795;BME280;51430;52.242;21.118;2023-07-20T18:32:36;99821.53;;;17.48;100.00
33795;BME280;51430;52.242;21.118;2023-07-20T18:35:05;99823.48;;;17.46;100.00
33795;BME280;51430;52.242;21.118;2023-07-20T18:37:34;99819.65;;;17.48;100.00
33795;BME280;51430;52.242;21.118;2023-07-20T18:40:05;99823.20;;;17.44;100.00
33795;BME280;51430;52.242;21.118;2023-07-20T18:42:35;99824.17;;;17.40;100.00
33795;BME280;51430;52.242;21.118;2023-07-20T18:45:06;99820.73;;;17.35;100.00
33795;BME280;51430;52.242;21.118;2023-07-20T18:47:34;99823.78;;;17.32;100.00
33795;BME280;51430;52.242;21.118;2023-07-20T18:50:05;99829.06;;;17.29;100.00
33795;BME280;51430;52.242;21.118;2023-07-20T18:52:33;99827.14;;;17.18;100.00
33795;BME280;51430;52.242;21.118;2023-07-20T18:55:01;99825.42;;;17.12;100.00
33795;BME280;51430;52.242;21.118;2023-07-20T18:57:35;99829.27;;;17.08;100.00
33795;BME280;51430;52.242;21.118;2023-07-20T19:00:10;99831.30;;;17.07;100.00
33795;BME280;51430;52.242;21.118;2023-07-20T19:02:41;99836.94;;;17.04;100.00
33795;BME280;51430;52.242;21.118;2023-07-20T19:05:09;99838.68;;;17.02;100.00
33795;BME280;51430;52.242;21.118;2023-07-20T19:07:37;99834.49;;;17.00;100.00
33795;BME280;51430;52.242;21.118;2023-07-20T19:10:06;99834.27;;;16.97;100.00
33795;BME280;51430;52.242;21.118;2023-07-20T19:12:36;99841.85;;;16.97;100.00
33795;BME280;51430;52.242;21.118;2023-07-20T19:15:05;99840.91;;;16.93;100.00
33795;BME280;51430;52.242;21.118;2023-07-20T19:17:33;99847.27;;;16.92;100.00
33795;BME280;51430;52.242;21.118;2023-07-20T19:20:02;99856.20;;;16.92;100.00
33795;BME280;51430;52.242;21.118;2023-07-20T19:22:32;99854.92;;;16.91;100.00
33795;BME280;51430;52.242;21.118;2023-07-20T19:25:00;99858.92;;;16.88;100.00
33795;BME280;51430;52.242;21.118;2023-07-20T19:27:28;99864.44;;;16.87;100.00
33795;BME280;51430;52.242;21.118;2023-07-20T19:29:56;99864.20;;;16.83;100.00
33795;BME280;51430;52.242;21.118;2023-07-20T19:32:24;99863.29;;;16.79;100.00
33795;BME280;51430;52.242;21.118;2023-07-20T19:34:52;99863.59;;;16.76;100.00
33795;BME280;51430;52.242;21.118;2023-07-20T19:37:20;99877.52;;;16.76;100.00
33795;BME280;51430;52.242;21.118;2023-07-20T19:39:47;99880.02;;;16.74;100.00
33795;BME280;51430;52.242;21.118;2023-07-20T19:42:15;99881.75;;;16.74;100.00
33795;BME280;51430;52.242;21.118;2023-07-20T19:44:43;99877.59;;;16.69;100.00
33795;BME280;51430;52.242;21.118;2023-07-20T19:47:11;99874.00;;;16.65;100.00
33795;BME280;51430;52.242;21.118;2023-07-20T19:49:39;99870.10;;;16.65;100.00
33795;BME280;51430;52.242;21.118;2023-07-20T19:52:07;99866.44;;;16.65;100.00
33795;BME280;51430;52.242;21.118;2023-07-20T19:54:34;99866.51;;;16.61;100.00
33795;BME280;51430;52.242;21.118;2023-07-20T19:57:03;99862.98;;;16.58;100.00
33795;BME280;51430;52.242;21.118;2023-07-20T19:59:50;99860.27;;;16.53;100.00
33795;BME280;51430;52.242;21.118;2023-07-20T20:02:19;99865.62;;;16.51;100.00
33795;BME280;51430;52.242;21.118;2023-07-20T20:04:46;99869.25;;;16.49;100.00
33795;BME280;51430;52.242;21.118;2023-07-20T20:07:17;99874.73;;;16.45;100.00
33795;BME280;51430;52.242;21.118;2023-07-20T20:09:46;99872.80;;;16.42;100.00
33795;BME280;51430;52.242;21.118;2023-07-20T20:12:14;99871.65;;;16.38;100.00
33795;BME280;51430;52.242;21.118;2023-07-20T20:14:42;99871.79;;;16.38;100.00
33795;BME280;51430;52.242;21.118;2023-07-20T20:17:09;99876.92;;;16.36;100.00
33795;BME280;51430;52.242;21.118;2023-07-20T20:19:38;99875.28;;;16.34;100.00
33795;BME280;51430;52.242;21.118;2023-07-20T20:22:05;99876.66;;;16.35;100.00
33795;BME280;51430;52.242;21.118;2023-07-20T20:24:33;99871.88;;;16.32;100.00
33795;BME280;51430;52.242;21.118;2023-07-20T20:27:01;99878.50;;;16.28;100.00
33795;BME280;51430;52.242;21.118;2023-07-20T20:29:31;99884.48;;;16.23;100.00
33795;BME280;51430;52.242;21.118;2023-07-20T20:31:58;99887.29;;;16.20;100.00
33795;BME280;51430;52.242;21.118;2023-07-20T20:34:26;99891.19;;;16.18;100.00
33795;BME280;51430;52.242;21.118;2023-07-20T20:36:54;99897.52;;;16.15;100.00
33795;BME280;51430;52.242;21.118;2023-07-20T20:39:24;99900.11;;;16.14;100.00
33795;BME280;51430;52.242;21.118;2023-07-20T20:41:52;99904.23;;;16.12;100.00
33795;BME280;51430;52.242;21.118;2023-07-20T20:44:20;99904.09;;;16.08;100.00
33795;BME280;51430;52.242;21.118;2023-07-20T20:46:54;99905.60;;;16.05;100.00
33795;BME280;51430;52.242;21.118;2023-07-20T20:49:31;99902.64;;;15.98;100.00
33795;BME280;51430;52.242;21.118;2023-07-20T20:51:59;99893.05;;;15.98;100.00
33795;BME280;51430;52.242;21.118;2023-07-20T20:54:27;99896.85;;;15.98;100.00
33795;BME280;51430;52.242;21.118;2023-07-20T20:56:55;99904.59;;;15.98;100.00
33795;BME280;51430;52.242;21.118;2023-07-20T20:59:23;99911.15;;;15.96;100.00
33795;BME280;51430;52.242;21.118;2023-07-20T21:01:51;99913.77;;;15.95;100.00
33795;BME280;51430;52.242;21.118;2023-07-20T21:04:19;99915.23;;;15.92;100.00
33795;BME280;51430;52.242;21.118;2023-07-20T21:06:49;99912.48;;;15.90;100.00
33795;BME280;51430;52.242;21.118;2023-07-20T21:09:20;99913.75;;;15.88;100.00
33795;BME280;51430;52.242;21.118;2023-07-20T21:11:47;99915.10;;;15.87;100.00
33795;BME280;51430;52.242;21.118;2023-07-20T21:14:15;99912.48;;;15.87;100.00
33795;BME280;51430;52.242;21.118;2023-07-20T21:16:43;99911.02;;;15.86;100.00
33795;BME280;51430;52.242;21.118;2023-07-20T21:19:11;99910.08;;;15.90;100.00
33795;BME280;51430;52.242;21.118;2023-07-20T21:21:38;99916.21;;;15.91;100.00
33795;BME280;51430;52.242;21.118;2023-07-20T21:24:06;99919.28;;;15.92;100.00
33795;BME280;51430;52.242;21.118;2023-07-20T21:26:34;99919.87;;;15.90;100.00
33795;BME280;51430;52.242;21.118;2023-07-20T21:29:01;99926.65;;;15.88;100.00
33795;BME280;51430;52.242;21.118;2023-07-20T21:31:29;99927.10;;;15.85;100.00
33795;BME280;51430;52.242;21.118;2023-07-20T21:33:57;99928.05;;;15.83;100.00
33795;BME280;51430;52.242;21.118;2023-07-20T21:36:25;99930.62;;;15.83;100.00
33795;BME280;51430;52.242;21.118;2023-07-20T21:38:53;99937.14;;;15.82;100.00
33795;BME280;51430;52.242;21.118;2023-07-20T21:41:21;99945.41;;;15.80;100.00
33795;BME280;51430;52.242;21.118;2023-07-20T21:43:49;99948.06;;;15.78;100.00
33795;BME280;51430;52.242;21.118;2023-07-20T21:46:16;99941.41;;;15.75;100.00
33795;BME280;51430;52.242;21.118;2023-07-20T21:48:44;99934.02;;;15.68;100.00
33795;BME280;51430;52.242;21.118;2023-07-20T21:51:12;99932.68;;;15.59;100.00
33795;BME280;51430;52.242;21.118;2023-07-20T21:53:40;99935.84;;;15.57;100.00
33795;BME280;51430;52.242;21.118;2023-07-20T21:56:07;99939.70;;;15.57;100.00
33795;BME280;51430;52.242;21.118;2023-07-20T21:58:35;99944.66;;;15.57;100.00
33795;BME280;51430;52.242;21.118;2023-07-20T22:01:03;99946.64;;;15.56;100.00
33795;BME280;51430;52.242;21.118;2023-07-20T22:03:50;99944.48;;;15.49;100.00
33795;BME280;51430;52.242;21.118;2023-07-20T22:06:18;99954.65;;;15.46;100.00
33795;BME280;51430;52.242;21.118;2023-07-20T22:08:46;99955.17;;;15.45;100.00
33795;BME280;51430;52.242;21.118;2023-07-20T22:11:14;99960.60;;;15.43;100.00
33795;BME280;51430;52.242;21.118;2023-07-20T22:13:42;99960.59;;;15.38;100.00
33795;BME280;51430;52.242;21.118;2023-07-20T22:16:09;99962.14;;;15.35;100.00
33795;BME280;51430;52.242;21.118;2023-07-20T22:18:38;99962.98;;;15.34;100.00
33795;BME280;51430;52.242;21.118;2023-07-20T22:21:06;99966.34;;;15.33;100.00
33795;BME280;51430;52.242;21.118;2023-07-20T22:23:34;99969.84;;;15.33;100.00
33795;BME280;51430;52.242;21.118;2023-07-20T22:26:02;99970.61;;;15.33;100.00
33795;BME280;51430;52.242;21.118;2023-07-20T22:28:31;99966.16;;;15.37;100.00
33795;BME280;51430;52.242;21.118;2023-07-20T22:30:59;99966.35;;;15.42;100.00
33795;BME280;51430;52.242;21.118;2023-07-20T22:33:27;99962.91;;;15.44;100.00
33795;BME280;51430;52.242;21.118;2023-07-20T22:35:55;99955.59;;;15.46;100.00
33795;BME280;51430;52.242;21.118;2023-07-20T22:38:23;99955.58;;;15.46;100.00
33795;BME280;51430;52.242;21.118;2023-07-20T22:40:52;99955.59;;;15.52;100.00
33795;BME280;51430;52.242;21.118;2023-07-20T22:43:20;99954.73;;;15.55;100.00
33795;BME280;51430;52.242;21.118;2023-07-20T22:45:53;99952.05;;;15.57;100.00
33795;BME280;51430;52.242;21.118;2023-07-20T22:48:22;99951.45;;;15.59;100.00
33795;BME280;51430;52.242;21.118;2023-07-20T22:50:53;99950.17;;;15.60;100.00
33795;BME280;51430;52.242;21.118;2023-07-20T22:53:21;99945.73;;;15.58;100.00
33795;BME280;51430;52.242;21.118;2023-07-20T22:55:50;99946.23;;;15.55;100.00
33795;BME280;51430;52.242;21.118;2023-07-20T22:58:18;99948.13;;;15.53;100.00
33795;BME280;51430;52.242;21.118;2023-07-20T23:00:46;99948.40;;;15.51;100.00
33795;BME280;51430;52.242;21.118;2023-07-20T23:03:14;99946.09;;;15.46;100.00
33795;BME280;51430;52.242;21.118;2023-07-20T23:05:42;99949.48;;;15.42;100.00
33795;BME280;51430;52.242;21.118;2023-07-20T23:08:10;99947.67;;;15.39;100.00
33795;BME280;51430;52.242;21.118;2023-07-20T23:10:38;99947.16;;;15.32;100.00
33795;BME280;51430;52.242;21.118;2023-07-20T23:13:06;99949.06;;;15.29;100.00
33795;BME280;51430;52.242;21.118;2023-07-20T23:15:34;99945.44;;;15.25;100.00
33795;BME280;51430;52.242;21.118;2023-07-20T23:18:02;99949.20;;;15.21;100.00
33795;BME280;51430;52.242;21.118;2023-07-20T23:20:30;99947.52;;;15.18;100.00
33795;BME280;51430;52.242;21.118;2023-07-20T23:22:58;99946.06;;;15.10;100.00
33795;BME280;51430;52.242;21.118;2023-07-20T23:25:26;99950.33;;;15.08;100.00
33795;BME280;51430;52.242;21.118;2023-07-20T23:27:54;99949.13;;;15.06;100.00
33795;BME280;51430;52.242;21.118;2023-07-20T23:30:23;99952.09;;;15.03;100.00
33795;BME280;51430;52.242;21.118;2023-07-20T23:32:51;99946.81;;;15.00;100.00
33795;BME280;51430;52.242;21.118;2023-07-20T23:35:20;99950.14;;;14.96;100.00
33795;BME280;51430;52.242;21.118;2023-07-20T23:37:50;99951.14;;;14.93;100.00
33795;BME280;51430;52.242;21.118;2023-07-20T23:40:19;99957.66;;;14.91;100.00
33795;BME280;51430;52.242;21.118;2023-07-20T23:42:47;99955.52;;;14.88;100.00
33795;BME280;51430;52.242;21.118;2023-07-20T23:45:15;99956.42;;;14.88;100.00
33795;BME280;51430;52.242;21.118;2023-07-20T23:47:42;99953.00;;;14.85;100.00
33795;BME280;51430;52.242;21.118;2023-07-20T23:50:11;99952.06;;;14.82;100.00
33795;BME280;51430;52.242;21.118;2023-07-20T23:52:40;99950.74;;;14.82;100.00
33795;BME280;51430;52.242;21.118;2023-07-20T23:55:08;99950.95;;;14.78;100.00
33795;BME280;51430;52.242;21.118;2023-07-20T23:57:37;99953.67;;;14.77;100.00
